createdAt,value
2023-05-05T00:00:17.525Z,99285.41
2023-05-05T00:02:47.311Z,99282.72
2023-05-05T00:05:17.485Z,99274.63
2023-05-05T00:07:47.122Z,99266.06
2023-05-05T00:10:16.716Z,99269.94
2023-05-05T00:12:46.356Z,99278.34
2023-05-05T00:15:16.003Z,99277.31
2023-05-05T00:17:45.664Z,99281.75
2023-05-05T00:20:15.661Z,99275.31
2023-05-05T00:22:45.246Z,99278.47
2023-05-05T00:25:14.866Z,99284.69
2023-05-05T00:27:44.455Z,99279.31
2023-05-05T00:30:15.298Z,99280.13
2023-05-05T00:32:44.957Z,99277.66
2023-05-05T00:35:14.782Z,99277.66
2023-05-05T00:37:44.760Z,99277.44
2023-05-05T00:40:15.399Z,99277.28
2023-05-05T00:42:46.532Z,99267.34
2023-05-05T00:45:17.790Z,99273.56
2023-05-05T00:47:51.320Z,99273.56
2023-05-05T00:50:31.732Z,99266.50
2023-05-05T00:53:06.382Z,99262.13
2023-05-05T00:55:37.102Z,99265.84
2023-05-05T00:58:07.018Z,99259.06
2023-05-05T01:00:36.671Z,99265.75
2023-05-05T01:03:07.467Z,99260.34
2023-05-05T01:05:46.931Z,99262.22
2023-05-05T01:08:51.893Z,99255.06
2023-05-05T01:11:50.656Z,99253.78
2023-05-05T01:14:25.366Z,99262.75
2023-05-05T01:17:10.583Z,99266.06
2023-05-05T01:19:58.464Z,99265.44
2023-05-05T01:22:38.684Z,99265.00
2023-05-05T01:25:52.693Z,99270.91
2023-05-05T01:28:37.462Z,99280.00
2023-05-05T01:31:06.416Z,99268.03
2023-05-05T01:33:50.219Z,99267.56
2023-05-05T01:36:40.884Z,99267.81
2023-05-05T01:39:12.315Z,99265.53
2023-05-05T01:41:50.586Z,99273.19
2023-05-05T01:44:21.510Z,99275.91
2023-05-05T01:46:51.914Z,99271.53
2023-05-05T01:49:21.619Z,99262.44
2023-05-05T01:51:51.412Z,99259.50
2023-05-05T01:54:21.502Z,99262.19
2023-05-05T01:56:51.365Z,99259.38
2023-05-05T01:59:22.636Z,99255.22
2023-05-05T02:01:53.612Z,99246.28
2023-05-05T02:04:24.332Z,99253.91
2023-05-05T02:06:54.700Z,99240.72
2023-05-05T02:09:27.692Z,99244.84
2023-05-05T02:11:59.193Z,99252.69
2023-05-05T02:14:31.285Z,99244.03
2023-05-05T02:17:01.339Z,99239.50
2023-05-05T02:19:44.188Z,99234.97
2023-05-05T02:22:14.014Z,99230.88
2023-05-05T02:24:43.643Z,99228.19
2023-05-05T02:27:14.105Z,99231.69
2023-05-05T02:29:49.123Z,99221.56
2023-05-05T02:32:39.840Z,99216.13
2023-05-05T02:35:25.070Z,99217.84
2023-05-05T02:38:01.575Z,99207.09
2023-05-05T02:40:34.055Z,99201.50
2023-05-05T02:43:07.093Z,99196.56
2023-05-05T02:45:36.795Z,99197.84
2023-05-05T02:48:07.426Z,99194.53
2023-05-05T02:50:37.193Z,99185.78
2023-05-05T02:53:06.968Z,99187.91
2023-05-05T02:56:04.129Z,99172.13
2023-05-05T02:58:45.900Z,99182.06
2023-05-05T03:01:39.731Z,99176.94
2023-05-05T03:04:14.467Z,99172.19
2023-05-05T03:06:45.920Z,99171.16
2023-05-05T03:09:39.385Z,99156.69
2023-05-05T03:12:12.503Z,99150.25
2023-05-05T03:14:44.177Z,99150.91
2023-05-05T03:17:14.756Z,99146.53
2023-05-05T03:19:45.149Z,99139.94
2023-05-05T03:22:15.177Z,99144.09
2023-05-05T03:24:44.759Z,99144.34
2023-05-05T03:27:14.368Z,99150.38
2023-05-05T03:29:44.234Z,99145.00
2023-05-05T03:32:14.040Z,99138.75
2023-05-05T03:34:43.758Z,99138.94
2023-05-05T03:37:13.372Z,99140.16
2023-05-05T03:39:43.005Z,99131.25
2023-05-05T03:42:12.667Z,99132.91
2023-05-05T03:44:42.339Z,99141.66
2023-05-05T03:47:11.929Z,99127.00
2023-05-05T03:49:41.643Z,99132.75
2023-05-05T03:52:12.184Z,99128.84
2023-05-05T03:54:44.580Z,99132.91
2023-05-05T03:57:14.199Z,99129.22
2023-05-05T03:59:44.725Z,99125.50
2023-05-05T04:02:15.143Z,99124.22
2023-05-05T04:04:46.396Z,99126.72
2023-05-05T04:07:16.092Z,99129.59
2023-05-05T04:09:50.486Z,99127.75
2023-05-05T04:12:19.491Z,99122.34
2023-05-05T04:14:49.089Z,99118.84
2023-05-05T04:17:18.649Z,99110.94
2023-05-05T04:19:48.309Z,99111.38
2023-05-05T04:22:17.961Z,99115.75
2023-05-05T04:24:48.742Z,99119.44
2023-05-05T04:27:18.293Z,99113.25
2023-05-05T04:29:47.943Z,99114.94
2023-05-05T04:32:17.603Z,99112.22
2023-05-05T04:34:47.258Z,99108.50
2023-05-05T04:37:16.988Z,99107.03
2023-05-05T04:39:46.742Z,99106.63
2023-05-05T04:42:16.403Z,99107.69
2023-05-05T04:44:46.023Z,99106.00
2023-05-05T04:47:15.632Z,99105.53
2023-05-05T04:49:46.424Z,99108.69
2023-05-05T04:52:16.011Z,99097.91
2023-05-05T04:54:45.573Z,99100.81
2023-05-05T04:57:15.178Z,99099.16
2023-05-05T04:59:44.776Z,99097.69
2023-05-05T05:02:14.561Z,99095.63
2023-05-05T05:04:44.189Z,99092.94
2023-05-05T05:07:14.844Z,99089.22
2023-05-05T05:09:44.495Z,99088.16
2023-05-05T05:12:14.040Z,99077.00
2023-05-05T05:14:43.572Z,99077.84
2023-05-05T05:17:13.194Z,99068.72
2023-05-05T05:19:42.859Z,99065.50
2023-05-05T05:22:12.645Z,99066.09
2023-05-05T05:24:42.318Z,99063.41
2023-05-05T05:27:11.954Z,99060.09
2023-05-05T05:29:41.550Z,99059.94
2023-05-05T05:32:11.246Z,99056.59
2023-05-05T05:34:40.865Z,99057.63
2023-05-05T05:37:10.409Z,99055.34
2023-05-05T05:39:43.640Z,99046.00
2023-05-05T05:42:13.479Z,99049.75
2023-05-05T05:44:43.115Z,99055.16
2023-05-05T05:47:12.827Z,99052.19
2023-05-05T05:49:42.881Z,99044.13
2023-05-05T05:52:12.459Z,99046.34
2023-05-05T05:54:42.062Z,99044.13
2023-05-05T05:57:11.747Z,99037.69
2023-05-05T05:59:41.387Z,99036.47
2023-05-05T06:02:11.257Z,99035.00
2023-05-05T06:04:40.974Z,99028.31
2023-05-05T06:07:10.657Z,99031.88
2023-05-05T06:09:40.316Z,99028.78
2023-05-05T06:12:09.923Z,99037.25
2023-05-05T06:14:39.510Z,99021.75
2023-05-05T06:17:09.085Z,99022.31
2023-05-05T06:19:41.248Z,99017.75
2023-05-05T06:22:10.898Z,99010.31
2023-05-05T06:24:40.586Z,99010.31
2023-05-05T06:27:10.260Z,99011.72
2023-05-05T06:29:39.853Z,99007.63
2023-05-05T06:32:09.965Z,99002.91
2023-05-05T06:34:39.601Z,99009.09
2023-05-05T06:37:09.216Z,99006.84
2023-05-05T06:39:38.804Z,99001.59
2023-05-05T06:42:08.618Z,98990.41
2023-05-05T06:44:38.309Z,98986.66
2023-05-05T06:47:08.112Z,98989.56
2023-05-05T06:49:38.171Z,98986.66
2023-05-05T06:52:09.736Z,98984.03
2023-05-05T06:54:39.310Z,98990.06
2023-05-05T06:57:09.203Z,98987.94
2023-05-05T06:59:38.773Z,98986.22
2023-05-05T07:02:08.904Z,98981.28
2023-05-05T07:04:38.776Z,98985.22
2023-05-05T07:07:08.339Z,98983.09
2023-05-05T07:09:37.977Z,98978.31
2023-05-05T07:12:07.947Z,98984.75
2023-05-05T07:14:37.518Z,98981.44
2023-05-05T07:17:07.258Z,98983.09
2023-05-05T07:19:36.896Z,98987.44
2023-05-05T07:22:06.564Z,98992.81
2023-05-05T07:24:36.214Z,98978.72
2023-05-05T07:27:05.935Z,98983.50
2023-05-05T07:29:35.543Z,98979.56
2023-05-05T07:32:05.269Z,98977.06
2023-05-05T07:34:35.989Z,98980.41
2023-05-05T07:37:06.710Z,98976.44
2023-05-05T07:39:36.482Z,98980.78
2023-05-05T07:42:06.199Z,98975.84
2023-05-05T07:44:36.278Z,98982.84
2023-05-05T07:47:05.886Z,98984.91
2023-05-05T07:49:35.449Z,98984.91
2023-05-05T07:52:05.094Z,98994.66
2023-05-05T07:54:34.773Z,98990.69
2023-05-05T07:57:04.374Z,98989.25
2023-05-05T07:59:33.944Z,98992.13
2023-05-05T08:02:03.781Z,98987.34
2023-05-05T08:04:33.488Z,98986.53
2023-05-05T08:07:03.242Z,98982.38
2023-05-05T08:09:32.965Z,98990.25
2023-05-05T08:12:04.188Z,98990.47
2023-05-05T08:14:34.506Z,98982.56
2023-05-05T08:17:04.136Z,98987.13
2023-05-05T08:19:33.820Z,98992.50
2023-05-05T08:22:03.479Z,98983.59
2023-05-05T08:24:33.160Z,98984.44
2023-05-05T08:27:03.511Z,98980.47
2023-05-05T08:29:33.122Z,98976.13
2023-05-05T08:32:02.776Z,98985.66
2023-05-05T08:34:32.401Z,98982.53
2023-05-05T08:37:02.125Z,98996.63
2023-05-05T08:39:34.996Z,98988.56
2023-05-05T08:42:05.614Z,98996.22
2023-05-05T08:44:36.087Z,98992.66
2023-05-05T08:47:06.349Z,99001.34
2023-05-05T08:49:50.439Z,98991.84
2023-05-05T08:52:26.179Z,98995.41
2023-05-05T08:55:12.361Z,98998.50
2023-05-05T08:58:07.762Z,98997.84
2023-05-05T09:00:37.686Z,99005.53
2023-05-05T09:03:07.530Z,99013.38
2023-05-05T09:05:38.397Z,99009.69
2023-05-05T09:08:11.115Z,99015.06
2023-05-05T09:10:43.741Z,99017.31
2023-05-05T09:13:19.655Z,99008.00
2023-05-05T09:15:49.367Z,99021.47
2023-05-05T09:18:18.943Z,99014.63
2023-05-05T09:20:48.596Z,99017.94
2023-05-05T09:23:22.585Z,99024.56
2023-05-05T09:26:11.425Z,99030.13
2023-05-05T09:28:41.299Z,99029.31
2023-05-05T09:31:17.568Z,99030.97
2023-05-05T09:33:47.207Z,99043.16
2023-05-05T09:36:17.263Z,99035.28
2023-05-05T09:39:06.434Z,99034.63
2023-05-05T09:41:45.902Z,99040.84
2023-05-05T09:44:18.677Z,99034.91
2023-05-05T09:46:56.722Z,99039.63
2023-05-05T09:49:28.193Z,99043.97
2023-05-05T09:51:58.137Z,99039.47
2023-05-05T09:54:29.832Z,99037.75
2023-05-05T09:56:59.957Z,99036.88
2023-05-05T09:59:29.555Z,99043.13
2023-05-05T10:02:16.071Z,99047.66
2023-05-05T10:04:45.818Z,99053.91
2023-05-05T10:07:26.218Z,99047.19
2023-05-05T10:09:55.775Z,99051.00
2023-05-05T10:12:26.017Z,99056.59
2023-05-05T10:14:58.227Z,99057.41
2023-05-05T10:17:32.410Z,99062.97
2023-05-05T10:20:03.631Z,99062.53
2023-05-05T10:22:37.374Z,99071.25
2023-05-05T10:25:14.137Z,99081.41
2023-05-05T10:27:46.821Z,99082.84
2023-05-05T10:30:22.892Z,99091.56
2023-05-05T10:33:07.942Z,99086.59
2023-05-05T10:35:44.045Z,99088.66
2023-05-05T10:38:15.230Z,99101.66
2023-05-05T10:40:47.841Z,99096.50
2023-05-05T10:43:17.977Z,99102.88
2023-05-05T10:45:47.998Z,99104.56
2023-05-05T10:48:41.602Z,99100.03
2023-05-05T10:51:31.097Z,99109.69
2023-05-05T10:54:32.423Z,99110.34
2023-05-05T10:57:06.338Z,99126.28
2023-05-05T10:59:39.234Z,99113.28
2023-05-05T11:02:27.669Z,99122.97
2023-05-05T11:05:18.700Z,99119.44
2023-05-05T11:07:50.721Z,99127.94
2023-05-05T11:10:25.249Z,99128.97
2023-05-05T11:12:54.816Z,99129.16
2023-05-05T11:15:32.939Z,99133.91
2023-05-05T11:18:06.728Z,99126.19
2023-05-05T11:20:45.001Z,99126.66
2023-05-05T11:23:16.535Z,99139.72
2023-05-05T11:25:46.846Z,99131.03
2023-05-05T11:28:22.748Z,99137.03
2023-05-05T11:30:58.827Z,99140.09
2023-05-05T11:33:39.757Z,99141.13
2023-05-05T11:36:17.664Z,99156.25
2023-05-05T11:39:21.127Z,99150.41
2023-05-05T11:42:10.144Z,99160.34
2023-05-05T11:44:40.149Z,99151.44
2023-05-05T11:47:09.779Z,99150.41
2023-05-05T11:49:40.727Z,99162.22
2023-05-05T11:52:14.958Z,99157.88
2023-05-05T11:54:50.580Z,99151.84
2023-05-05T11:57:25.052Z,99158.03
2023-05-05T12:00:07.856Z,99157.88
2023-05-05T12:02:38.970Z,99165.72
2023-05-05T12:05:09.096Z,99155.19
2023-05-05T12:07:38.769Z,99167.97
2023-05-05T12:10:09.802Z,99160.09
2023-05-05T12:12:42.905Z,99166.31
2023-05-05T12:15:12.971Z,99160.72
2023-05-05T12:17:47.373Z,99170.03
2023-05-05T12:20:16.545Z,99169.25
2023-05-05T12:22:46.415Z,99166.09
2023-05-05T12:25:18.586Z,99159.28
2023-05-05T12:27:54.894Z,99160.31
2023-05-05T12:30:25.360Z,99154.72
2023-05-05T12:33:09.047Z,99164.00
2023-05-05T12:35:39.262Z,99157.63
2023-05-05T12:38:09.028Z,99162.34
2023-05-05T12:41:04.843Z,99164.19
2023-05-05T12:43:35.909Z,99161.66
2023-05-05T12:46:06.913Z,99166.06
2023-05-05T12:48:39.354Z,99169.38
2023-05-05T12:51:21.242Z,99162.88
2023-05-05T12:53:52.302Z,99169.94
2023-05-05T12:56:39.220Z,99164.75
2023-05-05T12:59:24.809Z,99164.34
2023-05-05T13:01:56.183Z,99160.56
2023-05-05T13:04:27.745Z,99153.72
2023-05-05T13:07:14.581Z,99163.47
2023-05-05T13:09:44.510Z,99161.59
2023-05-05T13:12:14.213Z,99157.88
2023-05-05T13:14:44.215Z,99162.44
2023-05-05T13:17:14.495Z,99160.78
2023-05-05T13:19:47.552Z,99159.28
2023-05-05T13:22:17.402Z,99154.75
2023-05-05T13:24:52.394Z,99148.91
2023-05-05T13:27:22.903Z,99152.44
2023-05-05T13:29:52.650Z,99144.19
2023-05-05T13:32:22.215Z,99141.66
2023-05-05T13:34:52.103Z,99143.72
2023-05-05T13:37:21.756Z,99136.66
2023-05-05T13:39:51.409Z,99139.56
2023-05-05T13:42:21.051Z,99131.13
2023-05-05T13:44:50.846Z,99132.16
2023-05-05T13:47:20.610Z,99134.84
2023-05-05T13:49:50.483Z,99132.31
2023-05-05T13:52:20.169Z,99133.53
2023-05-05T13:54:49.816Z,99130.66
2023-05-05T13:57:19.435Z,99127.13
2023-05-05T13:59:49.046Z,99126.75
2023-05-05T14:02:18.629Z,99126.31
2023-05-05T14:04:48.740Z,99118.88
2023-05-05T14:07:18.493Z,99112.22
2023-05-05T14:09:48.085Z,99110.72
2023-05-05T14:12:17.849Z,99105.16
2023-05-05T14:14:48.101Z,99113.41
2023-05-05T14:17:17.758Z,99111.56
2023-05-05T14:19:47.458Z,99107.88
2023-05-05T14:22:17.041Z,99108.63
2023-05-05T14:24:46.768Z,99104.28
2023-05-05T14:27:16.427Z,99108.75
2023-05-05T14:29:46.111Z,99114.47
2023-05-05T14:32:15.741Z,99110.75
2023-05-05T14:34:45.492Z,99112.81
2023-05-05T14:37:15.361Z,99117.53
2023-05-05T14:39:45.066Z,99110.75
2023-05-05T14:42:14.657Z,99107.00
2023-05-05T14:44:44.429Z,99116.25
2023-05-05T14:47:14.012Z,99117.03
2023-05-05T14:49:43.727Z,99121.84
2023-05-05T14:52:16.496Z,99127.78
2023-05-05T14:54:46.120Z,99140.56
2023-05-05T14:57:15.726Z,99127.50
2023-05-05T14:59:47.240Z,99129.81
2023-05-05T15:02:17.478Z,99135.94
2023-05-05T15:04:49.771Z,99132.88
2023-05-05T15:07:19.588Z,99137.63
2023-05-05T15:09:49.215Z,99138.25
2023-05-05T15:12:18.833Z,99135.19
2023-05-05T15:14:48.418Z,99139.84
2023-05-05T15:17:18.083Z,99134.28
2023-05-05T15:19:47.684Z,99134.56
2023-05-05T15:22:17.280Z,99134.72
2023-05-05T15:24:46.818Z,99135.31
2023-05-05T15:27:19.263Z,99132.88
2023-05-05T15:29:50.053Z,99139.03
2023-05-05T15:32:19.642Z,99130.75
2023-05-05T15:34:50.381Z,99128.06
2023-05-05T15:37:20.267Z,99127.59
2023-05-05T15:39:49.885Z,99123.63
2023-05-05T15:42:19.490Z,99128.06
2023-05-05T15:44:49.131Z,99128.28
2023-05-05T15:47:18.688Z,99120.75
2023-05-05T15:49:48.381Z,99117.34
2023-05-05T15:52:18.026Z,99122.22
2023-05-05T15:54:47.749Z,99124.66
2023-05-05T15:57:17.459Z,99125.03
2023-05-05T15:59:47.067Z,99118.63
2023-05-05T16:02:16.711Z,99122.81
2023-05-05T16:04:46.369Z,99120.56
2023-05-05T16:07:15.971Z,99124.44
2023-05-05T16:09:45.978Z,99115.75
2023-05-05T16:12:15.616Z,99124.06
2023-05-05T16:14:45.260Z,99123.81
2023-05-05T16:17:14.949Z,99116.38
2023-05-05T16:19:44.558Z,99121.75
2023-05-05T16:22:14.146Z,99126.50
2023-05-05T16:24:44.376Z,99113.13
2023-05-05T16:27:14.105Z,99126.50
2023-05-05T16:29:43.726Z,99119.63
2023-05-05T16:32:13.321Z,99118.44
2023-05-05T16:34:42.910Z,99105.47
2023-05-05T16:37:12.687Z,99111.22
2023-05-05T16:39:43.106Z,99111.09
2023-05-05T16:42:12.871Z,99110.38
2023-05-05T16:44:43.236Z,99105.53
2023-05-05T16:47:12.862Z,99112.59
2023-05-05T16:49:42.480Z,99109.81
2023-05-05T16:52:12.181Z,99106.09
2023-05-05T16:54:41.761Z,99106.94
2023-05-05T16:57:11.381Z,99106.09
2023-05-05T16:59:43.162Z,99105.38
2023-05-05T17:02:12.796Z,99105.47
2023-05-05T17:04:42.371Z,99111.00
2023-05-05T17:07:11.936Z,99106.00
2023-05-05T17:09:41.528Z,99099.63
2023-05-05T17:12:11.207Z,99102.97
2023-05-05T17:14:41.990Z,99102.50
2023-05-05T17:17:11.569Z,99107.97
2023-05-05T17:19:41.261Z,99103.06
2023-05-05T17:22:11.188Z,99103.16
2023-05-05T17:24:40.776Z,99112.41
2023-05-05T17:27:10.452Z,99107.13
2023-05-05T17:29:42.420Z,99102.84
2023-05-05T17:32:12.174Z,99104.25
2023-05-05T17:34:42.711Z,99108.69
2023-05-05T17:37:12.623Z,99108.16
2023-05-05T17:39:42.239Z,99103.63
2023-05-05T17:42:12.283Z,99094.63
2023-05-05T17:44:41.861Z,99097.31
2023-05-05T17:47:12.136Z,99102.13
2023-05-05T17:49:41.825Z,99109.34
2023-05-05T17:52:12.171Z,99094.91
2023-05-05T17:54:43.966Z,99101.66
2023-05-05T17:57:14.592Z,99095.09
2023-05-05T17:59:44.280Z,99104.72
2023-05-05T18:02:14.016Z,99104.25
2023-05-05T18:04:44.005Z,99101.75
2023-05-05T18:07:15.973Z,99110.94
2023-05-05T18:09:45.672Z,99103.25
2023-05-05T18:12:15.233Z,99100.56
2023-05-05T18:14:44.878Z,99107.78
2023-05-05T18:17:14.481Z,99100.47
2023-05-05T18:19:49.002Z,99096.75
2023-05-05T18:22:19.163Z,99092.66
2023-05-05T18:24:48.918Z,99105.63
2023-05-05T18:27:18.545Z,99108.78
2023-05-05T18:29:48.247Z,99095.34
2023-05-05T18:32:17.982Z,99104.44
2023-05-05T18:34:47.652Z,99099.44
2023-05-05T18:37:17.367Z,99104.25
2023-05-05T18:39:47.037Z,99096.56
2023-05-05T18:42:16.917Z,99101.13
2023-05-05T18:44:46.488Z,99098.44
2023-05-05T18:47:16.160Z,99098.31
2023-05-05T18:49:46.934Z,99094.63
2023-05-05T18:52:17.109Z,99097.09
2023-05-05T18:54:46.833Z,99101.47
2023-05-05T18:57:16.466Z,99105.72
2023-05-05T18:59:46.051Z,99105.44
2023-05-05T19:02:15.720Z,99111.28
2023-05-05T19:04:45.506Z,99107.69
2023-05-05T19:07:27.682Z,99105.56
2023-05-05T19:10:03.806Z,99104.41
2023-05-05T19:12:33.456Z,99105.25
2023-05-05T19:15:03.196Z,99110.25
2023-05-05T19:17:32.979Z,99110.25
2023-05-05T19:20:02.911Z,99109.06
2023-05-05T19:22:32.674Z,99107.56
2023-05-05T19:25:02.321Z,99107.56
2023-05-05T19:27:35.321Z,99101.09
2023-05-05T19:30:06.910Z,99107.28
2023-05-05T19:32:36.809Z,99102.09
2023-05-05T19:35:08.471Z,99106.94
2023-05-05T19:37:38.201Z,99111.91
2023-05-05T19:40:12.587Z,99111.56
2023-05-05T19:42:42.635Z,99114.69
2023-05-05T19:45:12.260Z,99122.38
2023-05-05T19:47:41.959Z,99110.16
2023-05-05T19:50:12.459Z,99122.09
2023-05-05T19:52:43.387Z,99117.09
2023-05-05T19:55:14.473Z,99126.59
2023-05-05T19:57:44.015Z,99128.53
2023-05-05T20:00:14.686Z,99115.78
2023-05-05T20:02:44.520Z,99121.63
2023-05-05T20:05:18.738Z,99128.28
2023-05-05T20:07:48.506Z,99127.91
2023-05-05T20:10:18.212Z,99129.00
2023-05-05T20:12:49.412Z,99136.03
2023-05-05T20:15:20.976Z,99125.03
2023-05-05T20:17:51.093Z,99141.81
2023-05-05T20:20:22.835Z,99130.91
2023-05-05T20:22:52.517Z,99138.28
2023-05-05T20:25:22.196Z,99136.63
2023-05-05T20:27:51.810Z,99148.66
2023-05-05T20:30:21.672Z,99152.72
2023-05-05T20:32:51.351Z,99147.72
2023-05-05T20:35:21.578Z,99160.09
2023-05-05T20:37:52.724Z,99151.63
2023-05-05T20:40:22.432Z,99162.16
2023-05-05T20:42:52.437Z,99148.47
2023-05-05T20:45:22.101Z,99165.47
2023-05-05T20:47:51.761Z,99171.69
2023-05-05T20:50:24.790Z,99159.00
2023-05-05T20:52:54.465Z,99166.94
2023-05-05T20:55:24.090Z,99178.38
2023-05-05T20:57:53.642Z,99174.69
2023-05-05T21:00:23.562Z,99175.50
2023-05-05T21:02:53.492Z,99177.91
2023-05-05T21:05:23.779Z,99172.72
2023-05-05T21:07:57.279Z,99179.56
2023-05-05T21:10:28.080Z,99175.22
2023-05-05T21:12:57.754Z,99189.34
2023-05-05T21:15:27.464Z,99188.94
2023-05-05T21:17:57.574Z,99193.53
2023-05-05T21:20:27.259Z,99202.56
2023-05-05T21:22:58.296Z,99199.41
2023-05-05T21:25:28.418Z,99204.13
2023-05-05T21:27:57.950Z,99206.41
2023-05-05T21:30:27.648Z,99211.97
2023-05-05T21:32:57.480Z,99218.50
2023-05-05T21:35:27.532Z,99214.66
2023-05-05T21:37:57.190Z,99226.75
2023-05-05T21:40:27.074Z,99240.78
2023-05-05T21:42:56.695Z,99231.41
2023-05-05T21:45:26.321Z,99248.00
2023-05-05T21:47:55.946Z,99254.53
2023-05-05T21:50:27.032Z,99254.28
2023-05-05T21:52:57.411Z,99261.66
2023-05-05T21:55:27.024Z,99265.31
2023-05-05T21:57:56.622Z,99272.03
2023-05-05T22:00:26.299Z,99277.41
2023-05-05T22:02:56.010Z,99271.34
2023-05-05T22:05:25.697Z,99282.28
2023-05-05T22:07:55.926Z,99284.75
2023-05-05T22:10:25.989Z,99278.03
2023-05-05T22:12:55.624Z,99287.78
2023-05-05T22:15:27.594Z,99289.13
2023-05-05T22:17:59.032Z,99298.69
2023-05-05T22:20:28.698Z,99303.22
2023-05-05T22:22:59.589Z,99307.91
2023-05-05T22:25:29.274Z,99315.31
2023-05-05T22:27:58.879Z,99305.94
2023-05-05T22:30:29.289Z,99325.38
2023-05-05T22:32:59.064Z,99336.13
2023-05-05T22:35:28.914Z,99331.44
2023-05-05T22:37:58.642Z,99336.59
2023-05-05T22:40:28.242Z,99323.34
2023-05-05T22:42:57.924Z,99337.63
2023-05-05T22:45:27.870Z,99334.22
2023-05-05T22:47:57.491Z,99346.53
2023-05-05T22:50:27.398Z,99347.50
2023-05-05T22:52:56.977Z,99352.88
2023-05-05T22:55:26.621Z,99351.38
2023-05-05T22:57:56.222Z,99356.56
2023-05-05T23:00:26.761Z,99359.53
2023-05-05T23:02:56.528Z,99364.72
2023-05-05T23:05:26.257Z,99378.00
2023-05-05T23:07:55.891Z,99371.94
2023-05-05T23:10:25.500Z,99386.19
2023-05-05T23:12:55.403Z,99380.34
2023-05-05T23:15:26.572Z,99384.69
2023-05-05T23:17:56.212Z,99390.91
2023-05-05T23:20:25.986Z,99399.44
2023-05-05T23:22:55.596Z,99401.31
2023-05-05T23:25:25.250Z,99400.97
2023-05-05T23:27:54.825Z,99410.50
2023-05-05T23:30:24.630Z,99411.72
2023-05-05T23:32:54.361Z,99415.03
2023-05-05T23:35:24.029Z,99423.91
2023-05-05T23:37:56.719Z,99423.25
2023-05-05T23:40:26.447Z,99428.94
2023-05-05T23:42:56.081Z,99434.78
2023-05-05T23:45:25.678Z,99433.63
2023-05-05T23:47:55.374Z,99438.97
2023-05-05T23:50:25.163Z,99437.31
2023-05-05T23:52:54.796Z,99443.69
2023-05-05T23:55:24.565Z,99446.00
2023-05-05T23:57:54.756Z,99447.69
